Time;durP1;ratioP1;P1;durP2;ratioP2;P2;SDS_P1;SDS_P2;PMS_P1;PMS_P2;Temp;Humidity;BMP_temperature;BMP_pressure;BME280_temperature;BME280_humidity;BME280_pressure;Samples;Min_cycle;Max_cycle;Signal;HPM_P1;HPM_P2
2022/05/28 00:00:57;;;;;;;9.23;1.58;;;11.50;99.90;;;;;;5015060;28;20051;-73
2022/05/28 00:03:24;;;;;;;8.95;1.67;;;11.40;99.90;;;;;;5032194;28;20037;-73
2022/05/28 00:05:50;;;;;;;10.23;2.60;;;11.50;99.90;;;;;;5031244;28;20052;-73
2022/05/28 00:08:16;;;;;;;9.07;1.90;;;11.50;99.90;;;;;;5031822;28;20073;-72
2022/05/28 00:10:42;;;;;;;8.48;1.63;;;11.50;99.90;;;;;;5014923;28;20502;-73
2022/05/28 00:13:08;;;;;;;10.00;1.50;;;11.50;99.90;;;;;;5031672;28;20521;-73
2022/05/28 00:15:34;;;;;;;9.40;1.70;;;11.40;99.90;;;;;;5030894;28;20081;-73
2022/05/28 00:17:59;;;;;;;8.27;1.60;;;11.30;99.90;;;;;;5031764;28;20107;-73
2022/05/28 00:20:26;;;;;;;8.93;1.40;;;11.40;99.90;;;;;;5031272;28;20544;-73
2022/05/28 00:22:52;;;;;;;9.02;1.52;;;11.20;99.90;;;;;;5029939;28;20406;-73
2022/05/28 00:25:18;;;;;;;10.57;1.50;;;11.20;99.90;;;;;;5029665;28;20029;-72
2022/05/28 00:27:44;;;;;;;6.88;1.30;;;11.20;99.90;;;;;;5013791;28;20045;-72
2022/05/28 00:30:12;;;;;;;10.68;1.35;;;11.20;99.90;;;;;;5031976;28;20516;-73
2022/05/28 00:32:38;;;;;;;8.98;1.90;;;11.10;99.90;;;;;;5031580;28;20049;-73
2022/05/28 00:35:05;;;;;;;11.25;1.50;;;11.20;99.90;;;;;;5030562;28;20045;-73
2022/05/28 00:37:31;;;;;;;11.02;2.00;;;11.10;99.90;;;;;;5029580;28;20110;-73
2022/05/28 00:39:57;;;;;;;6.47;1.23;;;11.10;99.90;;;;;;5031257;28;20486;-73
2022/05/28 00:42:23;;;;;;;8.68;1.52;;;11.20;99.90;;;;;;5031419;28;20393;-73
2022/05/28 00:44:48;;;;;;;8.95;1.38;;;11.10;99.90;;;;;;5031018;28;20398;-73
2022/05/28 00:47:15;;;;;;;5.10;1.45;;;11.00;99.90;;;;;;5014206;28;20041;-73
2022/05/28 00:49:41;;;;;;;8.05;1.60;;;11.00;99.90;;;;;;5031394;28;20051;-73
2022/05/28 00:52:07;;;;;;;7.50;1.33;;;11.00;99.90;;;;;;5014963;28;20041;-73
2022/05/28 00:54:44;;;;;;;6.28;1.30;;;11.10;99.90;;;;;;5031235;28;20045;-73
2022/05/28 00:57:11;;;;;;;5.43;1.40;;;11.20;99.90;;;;;;5030923;28;20055;-73
2022/05/28 00:59:37;;;;;;;9.20;1.30;;;11.10;99.90;;;;;;5029946;28;20037;-73
2022/05/28 01:02:19;;;;;;;7.68;1.45;;;11.00;99.90;;;;;;5048811;28;20039;-73
2022/05/28 01:05:02;;;;;;;9.05;1.55;;;10.90;99.90;;;;;;5017700;28;20045;-73
2022/05/28 01:07:41;;;;;;;10.88;1.65;;;10.90;99.90;;;;;;5050745;28;20133;-73
2022/05/28 01:10:13;;;;;;;9.75;1.70;;;10.90;99.90;;;;;;5034704;28;20038;-73
2022/05/28 01:12:58;;;;;;;7.45;1.42;;;10.80;99.90;;;;;;5034677;28;20046;-73
2022/05/28 01:15:28;;;;;;;9.40;1.30;;;10.80;99.90;;;;;;5034040;28;20111;-72
2022/05/28 01:18:11;;;;;;;8.48;1.33;;;10.90;99.90;;;;;;5033685;28;20486;-73
2022/05/28 01:20:46;;;;;;;10.48;1.73;;;10.80;99.90;;;;;;5034602;28;20041;-72
2022/05/28 01:23:34;;;;;;;7.15;1.30;;;10.70;99.90;;;;;;5017356;28;20087;-72
2022/05/28 01:26:18;;;;;;;9.52;1.70;;;10.60;99.90;;;;;;5034357;28;20068;-72
2022/05/28 01:28:49;;;;;;;10.57;1.40;;;10.70;99.90;;;;;;5033674;28;20088;-72
2022/05/28 01:31:16;;;;;;;8.95;1.75;;;10.70;99.90;;;;;;5024755;28;20046;-72
2022/05/28 01:33:43;;;;;;;7.22;1.27;;;10.60;99.90;;;;;;5043728;28;20037;-73
2022/05/28 01:36:12;;;;;;;9.48;1.63;;;10.60;99.90;;;;;;5033504;28;20051;-72
2022/05/28 01:38:41;;;;;;;9.07;1.58;;;10.50;99.90;;;;;;5033139;28;20137;-72
2022/05/28 01:41:08;;;;;;;8.75;1.45;;;10.40;99.90;;;;;;5034029;28;20045;-72
2022/05/28 01:43:37;;;;;;;7.70;1.25;;;10.50;99.90;;;;;;5034102;28;20084;-73
2022/05/28 01:46:04;;;;;;;8.98;1.65;;;10.50;99.90;;;;;;5016774;28;20072;-73
2022/05/28 01:48:30;;;;;;;5.63;1.35;;;10.50;99.90;;;;;;5016732;28;20088;-73
2022/05/28 01:50:57;;;;;;;7.82;1.50;;;10.50;99.90;;;;;;5033382;28;20077;-73
2022/05/28 01:56:10;;;;;;;8.07;1.50;;;10.40;99.90;;;;;;5049851;28;20468;-72
2022/05/28 01:58:35;;;;;;;10.95;1.85;;;10.30;99.90;;;;;;5032697;28;20129;-73
2022/05/28 02:01:03;;;;;;;6.15;1.40;;;10.40;99.90;;;;;;5031890;28;20128;-73
2022/05/28 02:03:32;;;;;;;9.52;1.33;;;10.50;99.90;;;;;;5032432;28;20786;-72
2022/05/28 02:05:58;;;;;;;8.13;1.40;;;10.40;99.90;;;;;;5033581;28;20034;-72
2022/05/28 02:08:24;;;;;;;9.82;1.45;;;10.30;99.90;;;;;;5032718;28;20111;-72
2022/05/28 02:11:04;;;;;;;7.90;1.50;;;10.30;99.90;;;;;;5033636;28;20052;-72
2022/05/28 02:13:41;;;;;;;8.45;1.48;;;10.20;99.90;;;;;;5016328;28;20033;-72
2022/05/28 02:16:14;;;;;;;7.85;1.60;;;10.20;99.90;;;;;;5033468;28;20103;-72
2022/05/28 02:18:50;;;;;;;11.98;1.52;;;10.30;99.90;;;;;;5020075;28;20041;-72
2022/05/28 02:21:25;;;;;;;7.57;1.50;;;10.30;99.90;;;;;;5013722;28;20490;-72
2022/05/28 02:23:57;;;;;;;8.18;1.20;;;10.20;99.90;;;;;;5013629;28;20120;-72
2022/05/28 02:26:32;;;;;;;;;;;10.20;99.90;;;;;;5026251;28;20083;-72
2022/05/28 02:29:00;;;;;;;7.78;1.40;;;10.20;99.90;;;;;;5032023;28;20369;-72
2022/05/28 02:31:31;;;;;;;10.75;1.67;;;10.10;99.90;;;;;;5042210;28;20045;-72
2022/05/28 02:33:58;;;;;;;8.95;2.63;;;10.10;99.90;;;;;;5015573;28;20096;-72
2022/05/28 02:36:24;;;;;;;7.05;1.23;;;10.10;99.90;;;;;;5049824;28;20393;-72
2022/05/28 02:38:51;;;;;;;7.10;1.30;;;10.10;99.90;;;;;;5016265;28;20049;-72
2022/05/28 02:41:17;;;;;;;7.22;1.38;;;10.10;99.90;;;;;;5032309;28;20124;-72
2022/05/28 02:43:43;;;;;;;7.82;2.15;;;10.20;99.90;;;;;;5016302;28;20044;-72
2022/05/28 02:46:09;;;;;;;9.52;2.03;;;10.20;99.90;;;;;;5048762;28;20041;-72
2022/05/28 02:48:35;;;;;;;9.05;1.77;;;10.20;99.90;;;;;;5030560;28;20046;-72
2022/05/28 02:51:23;;;;;;;10.95;1.63;;;10.20;99.90;;;;;;5016187;28;20490;-71
2022/05/28 02:53:52;;;;;;;8.85;1.63;;;10.30;99.90;;;;;;5015758;28;20052;-72
2022/05/28 02:56:19;;;;;;;14.25;1.98;;;10.20;99.90;;;;;;5032881;28;20500;-72
2022/05/28 02:58:45;;;;;;;8.55;1.63;;;10.20;99.90;;;;;;5030472;28;20408;-71
2022/05/28 03:01:29;;;;;;;10.35;1.73;;;10.10;99.90;;;;;;5031741;28;20037;-72
2022/05/28 03:03:56;;;;;;;9.40;1.60;;;10.20;99.90;;;;;;5032659;28;20048;-72
2022/05/28 03:06:22;;;;;;;9.73;1.80;;;10.20;99.90;;;;;;5031531;28;20037;-72
2022/05/28 03:08:47;;;;;;;9.20;2.13;;;10.10;99.90;;;;;;5031893;28;20409;-72
2022/05/28 03:11:13;;;;;;;9.98;1.90;;;10.10;99.90;;;;;;5032786;28;20044;-73
2022/05/28 03:13:40;;;;;;;9.55;1.80;;;10.10;99.90;;;;;;5032458;28;20548;-73
2022/05/28 03:16:07;;;;;;;11.90;1.80;;;10.20;99.90;;;;;;5031747;28;20049;-73
2022/05/28 03:18:33;;;;;;;11.90;2.03;;;10.30;99.90;;;;;;5012135;28;21296;-73
2022/05/28 03:20:59;;;;;;;9.90;1.50;;;10.40;99.90;;;;;;5029798;28;20126;-72
2022/05/28 03:23:24;;;;;;;10.52;1.73;;;10.30;99.90;;;;;;5031029;28;20037;-72
2022/05/28 03:25:50;;;;;;;11.52;1.90;;;10.30;99.90;;;;;;5029579;28;20044;-74
2022/05/28 03:28:15;;;;;;;8.43;1.58;;;10.20;99.90;;;;;;5015736;28;20045;-73
2022/05/28 03:30:41;;;;;;;8.40;1.65;;;10.20;99.90;;;;;;5012045;28;20047;-73
2022/05/28 03:33:07;;;;;;;11.90;2.00;;;10.20;99.90;;;;;;5043101;28;20116;-72
2022/05/28 03:35:33;;;;;;;9.27;1.60;;;10.20;99.90;;;;;;4995954;28;20148;-73
2022/05/28 03:37:59;;;;;;;12.60;1.63;;;10.30;99.90;;;;;;5022222;28;20053;-73
2022/05/28 03:40:24;;;;;;;8.35;1.70;;;10.30;99.90;;;;;;5043927;28;20513;-73
2022/05/28 03:42:50;;;;;;;14.00;2.00;;;10.30;99.90;;;;;;5025223;28;20481;-73
2022/05/28 03:45:15;;;;;;;9.93;2.15;;;10.30;99.90;;;;;;5023270;28;20056;-73
2022/05/28 03:47:41;;;;;;;9.02;2.13;;;10.40;99.90;;;;;;5029570;28;20049;-73
2022/05/28 03:50:07;;;;;;;9.88;1.55;;;10.30;99.90;;;;;;5031029;28;20041;-73
2022/05/28 03:52:33;;;;;;;11.68;2.10;;;10.40;99.90;;;;;;5029199;28;20103;-73
2022/05/28 03:54:59;;;;;;;15.43;2.35;;;10.40;99.90;;;;;;5008714;28;20041;-73
2022/05/28 03:57:30;;;;;;;10.85;1.80;;;10.40;99.90;;;;;;5002735;28;20489;-73
2022/05/28 03:59:57;;;;;;;9.65;2.53;;;10.40;99.90;;;;;;5047194;28;20125;-72
2022/05/28 04:02:23;;;;;;;7.10;1.63;;;10.50;99.90;;;;;;5030058;28;20041;-72
2022/05/28 04:04:49;;;;;;;9.13;1.90;;;10.50;99.90;;;;;;5031315;28;20045;-72
2022/05/28 04:07:15;;;;;;;11.75;2.10;;;10.40;99.90;;;;;;5030230;28;20041;-73
2022/05/28 04:09:41;;;;;;;9.48;2.10;;;10.30;99.90;;;;;;5023620;28;20517;-72
2022/05/28 04:12:07;;;;;;;13.32;2.60;;;10.30;99.90;;;;;;5046690;28;20037;-73
2022/05/28 04:14:32;;;;;;;9.95;2.13;;;10.30;99.90;;;;;;5029105;28;20048;-73
2022/05/28 04:16:58;;;;;;;11.77;1.92;;;10.50;99.90;;;;;;5013899;28;20041;-73
2022/05/28 04:19:23;;;;;;;13.20;2.28;;;10.30;99.90;;;;;;5014070;28;20068;-73
2022/05/28 04:21:49;;;;;;;11.73;1.83;;;10.30;99.90;;;;;;5030751;28;20045;-73
2022/05/28 04:24:15;;;;;;;11.40;1.83;;;10.30;99.90;;;;;;5029851;28;20445;-73
2022/05/28 04:26:40;;;;;;;9.13;2.30;;;10.30;99.90;;;;;;5013275;28;20065;-74
2022/05/28 04:29:06;;;;;;;14.27;2.17;;;10.30;99.90;;;;;;5017384;28;20072;-73
2022/05/28 04:31:32;;;;;;;8.02;1.88;;;10.30;99.90;;;;;;5043208;28;20045;-73
2022/05/28 04:33:58;;;;;;;10.77;2.22;;;10.20;99.90;;;;;;5040764;28;20088;-73
2022/05/28 04:36:24;;;;;;;10.85;2.40;;;10.20;99.90;;;;;;5032760;28;20048;-73
2022/05/28 04:38:49;;;;;;;17.25;2.60;;;10.30;99.90;;;;;;5016375;28;20061;-73
2022/05/28 04:41:15;;;;;;;13.50;2.85;;;10.20;99.90;;;;;;5034970;28;20041;-74
2022/05/28 04:43:40;;;;;;;14.98;2.58;;;10.20;99.90;;;;;;5032778;28;20088;-74
2022/05/28 04:46:06;;;;;;;15.05;3.38;;;10.20;99.90;;;;;;5032825;28;20041;-73
2022/05/28 04:48:32;;;;;;;14.55;2.60;;;10.30;99.90;;;;;;5018835;28;20091;-73
2022/05/28 04:50:57;;;;;;;15.43;3.78;;;10.40;99.90;;;;;;5017091;28;20029;-73
2022/05/28 04:53:23;;;;;;;10.23;2.30;;;10.40;99.90;;;;;;5032177;28;20158;-73
2022/05/28 04:55:49;;;;;;;14.55;2.05;;;10.50;99.90;;;;;;5034862;28;20041;-73
2022/05/28 04:58:14;;;;;;;13.93;2.42;;;10.60;99.90;;;;;;5016458;28;20168;-74
2022/05/28 05:00:42;;;;;;;13.35;2.28;;;10.60;99.90;;;;;;5035002;28;20037;-74
2022/05/28 05:03:08;;;;;;;11.10;2.35;;;10.70;99.90;;;;;;5016508;28;20037;-73
2022/05/28 05:05:34;;;;;;;12.45;2.70;;;10.70;99.90;;;;;;5033059;28;20048;-74
2022/05/28 05:08:00;;;;;;;12.75;2.50;;;10.70;99.90;;;;;;5015405;28;20417;-73
2022/05/28 05:10:25;;;;;;;10.43;2.15;;;10.70;99.90;;;;;;5030858;28;20464;-73
2022/05/28 05:12:51;;;;;;;10.07;2.00;;;10.70;99.90;;;;;;5048782;28;20406;-72
2022/05/28 05:15:17;;;;;;;10.77;2.08;;;10.70;99.90;;;;;;5033957;28;20060;-72
2022/05/28 05:17:42;;;;;;;7.97;2.10;;;10.70;99.90;;;;;;5033149;28;20041;-73
2022/05/28 05:20:10;;;;;;;11.65;2.28;;;10.70;99.90;;;;;;5016857;28;20042;-72
2022/05/28 05:22:36;;;;;;;14.55;2.45;;;10.80;99.90;;;;;;5033243;28;20046;-73
2022/05/28 05:25:02;;;;;;;11.98;2.15;;;10.80;99.90;;;;;;5032557;28;20397;-73
2022/05/28 05:27:28;;;;;;;9.65;2.88;;;10.80;99.90;;;;;;5032624;28;20033;-72
2022/05/28 05:29:57;;;;;;;12.52;2.20;;;10.80;99.90;;;;;;5034506;28;20095;-72
2022/05/28 05:32:23;;;;;;;11.93;2.28;;;10.90;99.90;;;;;;5034538;28;20391;-72
2022/05/28 05:34:48;;;;;;;13.35;2.80;;;10.80;99.90;;;;;;5032325;28;20049;-72
2022/05/28 05:37:14;;;;;;;10.15;2.22;;;10.90;99.90;;;;;;5032862;28;20044;-72
2022/05/28 05:39:40;;;;;;;12.50;2.72;;;10.90;99.90;;;;;;5031762;28;20053;-72
2022/05/28 05:42:06;;;;;;;13.02;2.50;;;10.90;99.90;;;;;;5032293;28;20049;-73
2022/05/28 05:44:31;;;;;;;12.85;2.05;;;10.90;99.90;;;;;;5019613;28;20406;-72
2022/05/28 05:46:57;;;;;;;10.88;2.00;;;11.10;99.90;;;;;;5029252;28;20052;-73
2022/05/28 05:49:22;;;;;;;11.95;2.53;;;11.10;99.90;;;;;;5028675;28;20053;-73
2022/05/28 05:51:48;;;;;;;10.40;2.40;;;11.20;99.90;;;;;;5014333;28;20046;-72
2022/05/28 05:54:15;;;;;;;13.57;2.30;;;11.30;99.90;;;;;;5022506;28;20037;-73
2022/05/28 05:56:41;;;;;;;16.52;2.85;;;11.40;99.90;;;;;;5010551;28;20038;-73
2022/05/28 05:59:06;;;;;;;14.27;2.67;;;11.40;99.90;;;;;;5031040;28;20068;-72
2022/05/28 06:01:32;;;;;;;12.85;2.95;;;11.40;99.90;;;;;;5032284;28;20478;-72
2022/05/28 06:03:58;;;;;;;14.73;2.58;;;11.50;99.90;;;;;;5030051;28;20030;-72
2022/05/28 06:06:24;;;;;;;13.40;2.78;;;11.50;99.90;;;;;;5032470;28;20025;-73
2022/05/28 06:08:50;;;;;;;13.80;2.65;;;11.70;99.90;;;;;;5015909;28;20041;-72
2022/05/28 06:11:16;;;;;;;15.68;2.30;;;11.70;99.90;;;;;;5032049;28;20055;-72
2022/05/28 06:13:41;;;;;;;9.00;1.90;;;11.80;99.90;;;;;;5032706;28;20044;-71
2022/05/28 06:16:07;;;;;;;12.95;2.50;;;12.00;99.90;;;;;;5031195;28;20480;-72
2022/05/28 06:18:33;;;;;;;14.15;2.70;;;12.00;99.90;;;;;;5030711;28;20107;-71
2022/05/28 06:21:00;;;;;;;10.93;2.65;;;12.00;99.90;;;;;;5032351;28;20041;-71
2022/05/28 06:23:26;;;;;;;8.55;1.85;;;11.90;99.90;;;;;;5030704;28;20029;-72
2022/05/28 06:25:52;;;;;;;12.32;2.00;;;11.90;99.90;;;;;;5016450;28;20045;-72
2022/05/28 06:28:18;;;;;;;12.45;2.33;;;11.80;99.90;;;;;;5014570;28;20041;-72
2022/05/28 06:30:45;;;;;;;13.98;2.45;;;11.80;99.90;;;;;;5044041;28;20386;-72
2022/05/28 06:33:11;;;;;;;8.35;1.80;;;11.90;99.90;;;;;;5043168;28;20044;-72
2022/05/28 06:35:38;;;;;;;11.77;2.45;;;11.90;99.90;;;;;;5032857;28;20034;-71
2022/05/28 06:38:04;;;;;;;12.63;2.72;;;11.90;99.90;;;;;;5015410;28;20049;-72
2022/05/28 06:40:31;;;;;;;8.13;1.90;;;11.90;99.90;;;;;;5044827;28;20405;-72
2022/05/28 06:42:57;;;;;;;11.45;2.63;;;11.80;99.90;;;;;;5013531;28;20042;-72
2022/05/28 06:45:24;;;;;;;10.32;1.95;;;11.80;99.90;;;;;;5028671;28;20042;-72
2022/05/28 06:47:50;;;;;;;11.45;2.10;;;11.80;99.90;;;;;;5013417;28;20398;-73
2022/05/28 06:53:03;;;;;;;12.65;2.17;;;11.90;99.90;;;;;;5031041;28;20526;-74
2022/05/28 06:55:29;;;;;;;11.82;2.78;;;11.90;99.90;;;;;;5016634;28;20128;-72
2022/05/28 06:57:55;;;;;;;8.13;1.92;;;12.10;99.90;;;;;;5031343;28;20172;-74
2022/05/28 07:00:20;;;;;;;8.88;1.80;;;12.40;99.90;;;;;;5048700;28;20052;-72
2022/05/28 07:02:46;;;;;;;6.28;1.45;;;12.50;99.90;;;;;;5031830;28;20041;-72
2022/05/28 07:05:14;;;;;;;7.25;1.80;;;12.60;99.90;;;;;;5015762;28;20124;-72
2022/05/28 07:07:41;;;;;;;9.98;2.13;;;12.70;99.90;;;;;;5014303;28;20472;-72
2022/05/28 07:10:07;;;;;;;11.10;2.22;;;12.70;99.90;;;;;;5016011;28;20045;-71
2022/05/28 07:12:33;;;;;;;9.00;1.55;;;12.80;99.90;;;;;;5048543;28;20056;-72
2022/05/28 07:14:59;;;;;;;9.98;1.60;;;12.80;99.90;;;;;;5014932;28;20041;-72
2022/05/28 07:17:24;;;;;;;9.82;2.13;;;12.80;99.90;;;;;;5015328;28;20033;-71
2022/05/28 07:19:50;;;;;;;9.05;1.73;;;12.70;99.90;;;;;;5032247;28;20120;-71
2022/05/28 07:22:17;;;;;;;12.55;2.17;;;12.60;99.90;;;;;;5048301;28;20030;-71
2022/05/28 07:24:42;;;;;;;9.43;1.63;;;12.60;99.90;;;;;;5015864;28;20038;-71
2022/05/28 07:27:08;;;;;;;8.55;1.63;;;12.50;99.90;;;;;;5026042;28;20167;-72
2022/05/28 07:29:33;;;;;;;10.90;2.15;;;12.60;99.90;;;;;;5019280;28;20034;-72
2022/05/28 07:31:59;;;;;;;8.07;1.90;;;12.70;99.90;;;;;;5031153;28;20046;-72
2022/05/28 07:34:24;;;;;;;9.05;1.63;;;12.70;99.90;;;;;;5014940;28;20037;-79
2022/05/28 07:36:50;;;;;;;9.90;1.75;;;12.80;99.90;;;;;;5015718;28;20045;-72
2022/05/28 07:39:16;;;;;;;12.73;2.33;;;12.90;99.90;;;;;;5028168;28;20057;-72
2022/05/28 07:41:43;;;;;;;7.28;1.90;;;12.90;99.90;;;;;;5030403;28;20482;-72
2022/05/28 07:44:09;;;;;;;9.00;1.65;;;13.00;99.90;;;;;;5030006;28;20048;-74
2022/05/28 07:46:34;;;;;;;8.10;1.83;;;13.00;99.90;;;;;;5030570;28;20401;-73
2022/05/28 07:49:02;;;;;;;11.23;2.10;;;13.10;99.90;;;;;;5030840;28;20060;-73
2022/05/28 07:51:28;;;;;;;12.93;2.35;;;13.10;99.90;;;;;;5031924;28;20048;-73
2022/05/28 07:53:53;;;;;;;15.77;3.03;;;13.20;99.90;;;;;;5013678;28;20379;-73
2022/05/28 07:56:19;;;;;;;13.98;2.50;;;13.40;99.90;;;;;;5030829;28;20124;-73
2022/05/28 07:58:45;;;;;;;12.18;2.13;;;13.60;99.90;;;;;;5028440;28;20037;-73
2022/05/28 08:01:22;;;;;;;16.60;2.88;;;13.80;99.90;;;;;;5031847;28;20037;-73
2022/05/28 08:03:49;;;;;;;14.23;2.80;;;14.00;99.90;;;;;;5030410;28;20222;-73
2022/05/28 08:06:15;;;;;;;11.32;3.03;;;14.00;99.90;;;;;;5015452;28;20052;-73
2022/05/28 08:08:41;;;;;;;16.27;2.90;;;13.90;99.90;;;;;;5028358;28;20502;-73
2022/05/28 08:11:07;;;;;;;11.68;2.50;;;13.70;99.90;;;;;;5018389;28;20041;-73
2022/05/28 08:13:33;;;;;;;16.40;3.03;;;13.60;99.90;;;;;;5034421;28;20041;-73
2022/05/28 08:16:00;;;;;;;16.92;3.38;;;13.40;99.90;;;;;;5031518;28;20049;-73
2022/05/28 08:18:26;;;;;;;11.90;2.28;;;13.40;99.90;;;;;;5033199;28;20033;-72
2022/05/28 08:23:40;;;;;;;13.80;2.53;;;13.70;99.90;;;;;;5038180;28;20453;-72
2022/05/28 08:26:06;;;;;;;10.70;2.10;;;13.80;99.90;;;;;;5019193;28;20120;-72
2022/05/28 08:28:32;;;;;;;14.80;2.22;;;13.70;99.90;;;;;;5050252;28;20037;-75
2022/05/28 08:30:57;;;;;;;11.60;2.20;;;13.90;99.90;;;;;;5018968;28;20047;-72
2022/05/28 08:33:23;;;;;;;13.23;2.42;;;14.10;99.90;;;;;;5017215;28;20044;-72
2022/05/28 08:35:50;;;;;;;11.52;2.65;;;13.90;99.90;;;;;;5018968;28;20064;-72
2022/05/28 08:38:18;;;;;;;12.77;2.38;;;13.90;99.90;;;;;;5048051;28;20056;-72
2022/05/28 08:40:53;;;;;;;10.82;1.90;;;13.90;99.90;;;;;;5032162;28;20375;-71
2022/05/28 08:43:19;;;;;;;12.85;2.15;;;14.00;99.90;;;;;;5048871;28;20052;-72
2022/05/28 08:45:50;;;;;;;14.25;2.50;;;14.00;99.90;;;;;;5034002;28;20128;-72
2022/05/28 08:48:20;;;;;;;13.27;2.63;;;14.20;99.90;;;;;;5033934;28;20457;-72
2022/05/28 08:50:53;;;;;;;13.85;2.75;;;14.40;99.90;;;;;;5051045;28;20052;-72
2022/05/28 08:53:23;;;;;;;14.98;2.50;;;14.70;99.90;;;;;;5020221;28;20052;-72
2022/05/28 08:55:50;;;;;;;14.20;2.58;;;14.60;99.90;;;;;;5030795;28;20119;-73
2022/05/28 08:58:22;;;;;;;12.40;2.70;;;14.50;99.90;;;;;;5018234;28;20037;-73
2022/05/28 09:00:51;;;;;;;13.77;2.63;;;14.10;99.90;;;;;;5049896;28;20041;-73
2022/05/28 09:03:42;;;;;;;15.00;3.50;;;14.00;99.90;;;;;;5017956;28;20037;-72
2022/05/28 09:06:17;;;;;;;11.35;2.17;;;13.80;99.90;;;;;;5044335;28;20045;-73
2022/05/28 09:08:46;;;;;;;11.63;2.42;;;13.80;99.90;;;;;;5033767;28;20099;-73
2022/05/28 09:11:18;;;;;;;9.65;1.83;;;14.00;99.90;;;;;;5014540;28;20045;-73
2022/05/28 09:13:49;;;;;;;11.35;2.33;;;14.10;99.90;;;;;;5017571;28;20039;-73
2022/05/28 09:16:30;;;;;;;13.30;1.98;;;14.20;99.90;;;;;;5038923;28;20037;-73
2022/05/28 09:19:01;;;;;;;11.50;2.03;;;14.40;99.90;;;;;;5034538;28;20049;-73
2022/05/28 09:21:27;;;;;;;9.77;1.98;;;14.70;99.90;;;;;;5014750;28;20075;-72
2022/05/28 09:23:58;;;;;;;11.65;2.03;;;14.90;99.90;;;;;;5016680;28;20033;-73
2022/05/28 09:26:34;;;;;;;10.35;1.88;;;14.90;99.90;;;;;;5032925;28;20112;-73
2022/05/28 09:29:30;;;;;;;11.27;1.80;;;14.70;99.90;;;;;;5015683;28;20037;-72
2022/05/28 09:32:21;;;;;;;12.73;1.92;;;14.30;99.90;;;;;;5014834;28;20380;-72
2022/05/28 09:34:49;;;;;;;14.73;3.08;;;14.30;99.90;;;;;;5024069;28;20493;-72
2022/05/28 09:37:31;;;;;;;11.65;2.72;;;14.10;99.90;;;;;;5032856;28;20052;-71
2022/05/28 09:40:09;;;;;;;16.00;2.60;;;14.00;99.90;;;;;;5030446;28;20064;-72
2022/05/28 09:42:59;;;;;;;7.45;1.70;;;14.00;99.90;;;;;;5048857;28;20548;-72
2022/05/28 09:45:37;;;;;;;9.20;1.52;;;14.20;99.90;;;;;;5033338;28;20111;-71
2022/05/28 09:48:02;;;;;;;11.15;2.10;;;14.20;99.90;;;;;;5036334;28;20034;-72
2022/05/28 09:50:37;;;;;;;10.20;1.90;;;14.30;99.90;;;;;;5033848;28;20049;-71
2022/05/28 09:55:55;;;;;;;12.80;2.25;;;14.50;99.90;;;;;;5035224;28;20045;-72
2022/05/28 09:58:24;;;;;;;10.85;1.75;;;14.80;99.90;;;;;;5032757;28;20651;-71
2022/05/28 10:00:50;;;;;;;13.07;2.38;;;14.60;99.90;;;;;;5033073;28;20046;-71
2022/05/28 10:06:15;;;;;;;12.35;2.45;;;15.00;99.90;;;;;;5034221;28;20042;-71
2022/05/28 10:08:41;;;;;;;10.60;2.08;;;15.20;99.90;;;;;;5033365;28;20049;-71
2022/05/28 10:11:12;;;;;;;11.65;1.95;;;15.10;99.90;;;;;;5032257;28;20046;-71
2022/05/28 10:13:49;;;;;;;16.77;3.42;;;14.90;99.90;;;;;;5047507;28;20037;-72
2022/05/28 10:16:21;;;;;;;14.10;2.40;;;14.50;99.90;;;;;;5031938;28;20052;-72
2022/05/28 10:18:55;;;;;;;11.50;2.05;;;14.30;99.90;;;;;;5046870;28;20127;-72
2022/05/28 10:21:47;;;;;;;10.27;1.90;;;14.00;99.90;;;;;;5015461;28;20033;-72
2022/05/28 10:24:18;;;;;;;11.30;2.10;;;14.20;99.90;;;;;;5032576;28;20050;-72
2022/05/28 10:26:56;;;;;;;16.05;2.50;;;14.30;99.90;;;;;;5032275;28;20116;-72
2022/05/28 10:29:31;;;;;;;11.90;2.90;;;14.50;99.90;;;;;;5021746;28;20042;-72
2022/05/28 10:32:00;;;;;;;12.63;2.40;;;14.50;99.90;;;;;;5008021;28;20069;-72
2022/05/28 10:34:32;;;;;;;14.57;2.70;;;14.50;99.90;;;;;;5032865;28;20148;-72
2022/05/28 10:37:16;;;;;;;11.23;2.38;;;14.40;99.90;;;;;;5028371;28;20095;-72
2022/05/28 10:39:43;;;;;;;11.90;1.90;;;14.50;99.90;;;;;;5015180;28;20063;-72
2022/05/28 10:42:13;;;;;;;9.98;2.05;;;14.50;99.90;;;;;;5032086;28;20256;-72
2022/05/28 10:44:41;;;;;;;12.98;2.13;;;14.50;99.90;;;;;;5031974;28;20084;-73
2022/05/28 10:47:21;;;;;;;12.88;2.13;;;14.50;99.90;;;;;;5015818;28;20402;-73
2022/05/28 10:50:16;;;;;;;9.68;2.10;;;14.30;99.90;;;;;;5031097;28;20037;-73
2022/05/28 10:53:18;;;;;;;11.45;2.00;;;14.60;99.90;;;;;;5031545;28;20045;-72
2022/05/28 10:55:58;;;;;;;11.70;2.03;;;14.70;99.90;;;;;;5031575;28;20494;-72
2022/05/28 10:58:28;;;;;;;12.02;1.98;;;14.60;99.90;;;;;;5032255;28;20052;-71
2022/05/28 11:01:21;;;;;;;7.57;1.90;;;14.60;99.90;;;;;;5031694;28;20033;-71
2022/05/28 11:04:11;;;;;;;12.23;1.65;;;14.50;99.90;;;;;;5030447;28;20041;-71
2022/05/28 11:07:06;;;;;;;8.55;1.50;;;14.60;99.90;;;;;;5030224;28;20041;-71
2022/05/28 11:09:54;;;;;;;8.93;1.60;;;14.80;99.90;;;;;;5013701;28;20037;-72
2022/05/28 11:12:43;;;;;;;9.25;1.38;;;14.90;99.90;;;;;;5030928;28;20562;-71
2022/05/28 11:15:30;;;;;;;8.40;1.50;;;15.00;99.30;;;;;;5035254;28;20076;-71
2022/05/28 11:18:23;;;;;;;10.65;1.48;;;15.10;99.90;;;;;;5032552;28;20452;-71
2022/05/28 11:21:12;;;;;;;12.38;1.70;;;15.20;99.90;;;;;;5030942;28;20051;-71
2022/05/28 11:23:55;;;;;;;12.07;1.88;;;15.20;99.90;;;;;;5030809;28;20123;-72
2022/05/28 11:26:38;;;;;;;9.63;1.50;;;15.20;99.90;;;;;;5031005;28;20112;-72
2022/05/28 11:29:25;;;;;;;10.48;1.90;;;15.30;99.40;;;;;;5032309;28;20073;-71
2022/05/28 11:31:56;;;;;;;8.75;1.88;;;15.20;99.00;;;;;;5030934;28;20048;-71
2022/05/28 11:34:33;;;;;;;9.40;1.83;;;15.00;97.70;;;;;;5013791;28;20460;-71
2022/05/28 11:37:15;;;;;;;12.13;1.90;;;14.60;99.00;;;;;;5030389;28;20056;-71
2022/05/28 11:40:07;;;;;;;7.75;1.70;;;14.50;99.90;;;;;;5029459;28;20060;-71
2022/05/28 11:42:47;;;;;;;11.23;2.03;;;14.30;99.90;;;;;;5045752;28;20402;-71
2022/05/28 11:45:22;;;;;;;10.68;1.73;;;14.30;99.90;;;;;;5031534;28;20044;-71
2022/05/28 11:51:38;;;;;;;14.13;2.05;;;14.60;99.90;;;;;;4995738;28;20069;-71
2022/05/28 11:54:15;;;;;;;12.57;2.45;;;14.90;99.90;;;;;;5030831;28;20041;-71
2022/05/28 11:56:41;;;;;;;11.73;2.20;;;15.00;99.90;;;;;;5048542;28;20048;-71
2022/05/28 11:59:21;;;;;;;11.73;2.05;;;14.90;99.90;;;;;;5020299;28;20498;-71
2022/05/28 12:01:53;;;;;;;8.13;1.88;;;14.70;99.90;;;;;;5029867;28;20383;-71
2022/05/28 12:04:20;;;;;;;13.43;2.50;;;14.40;99.90;;;;;;5031435;28;20034;-72
2022/05/28 12:06:53;;;;;;;10.60;2.30;;;14.20;99.90;;;;;;5031342;28;20041;-71
2022/05/28 12:09:19;;;;;;;9.23;1.90;;;14.20;99.90;;;;;;5029437;28;20041;-71
2022/05/28 12:11:50;;;;;;;11.18;2.22;;;14.10;99.90;;;;;;5036639;28;20049;-72
2022/05/28 12:14:25;;;;;;;9.68;2.13;;;13.80;99.90;;;;;;5034649;28;20062;-72
2022/05/28 12:16:57;;;;;;;10.40;2.05;;;13.80;99.90;;;;;;5042996;28;20045;-72
2022/05/28 12:19:24;;;;;;;12.70;2.33;;;13.90;99.90;;;;;;5035052;28;20080;-72
2022/05/28 12:21:49;;;;;;;12.45;2.10;;;14.20;99.90;;;;;;5034553;28;20070;-72
2022/05/28 12:24:15;;;;;;;14.15;2.75;;;14.40;99.90;;;;;;5034471;28;20052;-72
2022/05/28 12:29:26;;;;;;;9.68;2.58;;;14.70;99.90;;;;;;5028362;28;20053;-72
2022/05/28 12:31:52;;;;;;;15.70;3.22;;;14.80;99.90;;;;;;5014786;28;20037;-72
2022/05/28 12:34:27;;;;;;;13.50;2.50;;;14.80;99.90;;;;;;5012766;28;20044;-72
2022/05/28 12:36:55;;;;;;;12.30;2.25;;;14.90;99.90;;;;;;5011596;28;20037;-72
2022/05/28 12:39:40;;;;;;;13.05;2.00;;;14.80;99.90;;;;;;5030896;28;20575;-72
2022/05/28 12:42:19;;;;;;;10.25;1.92;;;14.80;99.90;;;;;;5030835;28;20092;-72
2022/05/28 12:44:50;;;;;;;11.80;2.33;;;14.60;99.90;;;;;;5030475;28;20033;-72
2022/05/28 12:47:27;;;;;;;7.10;1.65;;;14.60;99.90;;;;;;5017595;28;20047;-72
2022/05/28 12:50:00;;;;;;;15.40;2.63;;;14.80;99.90;;;;;;5031039;28;20393;-71
2022/05/28 12:52:39;;;;;;;12.07;2.10;;;14.70;99.90;;;;;;5031290;28;20437;-72
2022/05/28 12:55:28;;;;;;;13.85;2.40;;;14.60;99.90;;;;;;5014887;28;20398;-72
2022/05/28 12:58:22;;;;;;;13.77;2.33;;;14.40;99.90;;;;;;5014135;28;20052;-72
2022/05/28 13:00:54;;;;;;;8.40;2.53;;;14.40;99.90;;;;;;5030030;28;20180;-72
2022/05/28 13:03:22;;;;;;;9.43;2.05;;;14.30;99.90;;;;;;5034614;28;20520;-72
2022/05/28 13:06:00;;;;;;;11.95;2.00;;;14.10;99.90;;;;;;5016764;28;20099;-71
2022/05/28 13:08:28;;;;;;;11.27;2.03;;;14.10;99.90;;;;;;5033378;28;20425;-72
2022/05/28 13:10:56;;;;;;;12.75;2.30;;;14.10;99.90;;;;;;5050542;28;20486;-71
2022/05/28 13:13:38;;;;;;;10.98;1.80;;;14.20;99.90;;;;;;5033308;28;20073;-72
2022/05/28 13:16:45;;;;;;;15.38;2.30;;;14.20;99.90;;;;;;5033690;28;20046;-72